Terminal Aerodrome Forecast
Issued by NWS

Home | Current Version | Previous Version | Text Only | Print | Product List | Glossary On
Versions: 1 2 3 4 5 6 7 8 9 10 11 12 13 14 15 16 17 18 19 20 21 22 23 24 25 26 27 28 29 30 31 32 33 34
000
FTUS45 KGJT 240524
TAFRIL
TAF
KRIL 240524Z 2406/2506 25004KT P6SM SCT200
     FM241700 25008KT P6SM FEW060 SCT130
     FM242000 26015G25KT P6SM FEW080 SCT120
     FM250100 25010KT P6SM FEW080 SCT150
     FM250300 22004KT P6SM FEW080 SCT200=

USA.gov is the U.S. government's official web portal to all federal, state and local government web resources and services.